createdAt,value
2023-05-10T00:00:58.629Z,15.80
2023-05-10T00:03:25.678Z,15.70
2023-05-10T00:05:53.007Z,15.70
2023-05-10T00:08:20.119Z,15.70
2023-05-10T00:10:47.093Z,15.70
2023-05-10T00:13:14.355Z,15.70
2023-05-10T00:15:41.359Z,15.70
2023-05-10T00:18:08.569Z,15.60
2023-05-10T00:20:35.605Z,15.60
2023-05-10T00:23:02.598Z,15.60
2023-05-10T00:25:29.686Z,15.60
2023-05-10T00:27:58.164Z,15.60
2023-05-10T00:30:25.428Z,15.50
2023-05-10T00:32:52.976Z,15.50
2023-05-10T00:35:20.161Z,15.60
2023-05-10T00:37:47.143Z,15.60
2023-05-10T00:40:14.873Z,15.50
2023-05-10T00:42:42.111Z,15.60
2023-05-10T00:45:09.703Z,15.50
2023-05-10T00:47:37.071Z,15.50
2023-05-10T00:50:05.786Z,15.50
2023-05-10T00:52:33.382Z,15.50
2023-05-10T00:55:01.215Z,15.40
2023-05-10T00:57:28.449Z,15.40
2023-05-10T00:59:55.436Z,15.40
2023-05-10T01:02:24.248Z,15.40
2023-05-10T01:04:51.546Z,15.40
2023-05-10T01:07:18.540Z,15.40
2023-05-10T01:09:45.829Z,15.40
2023-05-10T01:12:13.326Z,15.40
2023-05-10T01:14:40.836Z,15.40
2023-05-10T01:17:10.371Z,15.40
2023-05-10T01:19:39.162Z,15.40
2023-05-10T01:22:40.432Z,15.40
2023-05-10T01:25:37.363Z,15.40
2023-05-10T01:28:35.606Z,15.30
2023-05-10T01:31:21.418Z,15.30
2023-05-10T01:34:01.689Z,15.40
2023-05-10T01:36:44.957Z,15.40
2023-05-10T01:39:33.897Z,15.40
2023-05-10T01:42:28.528Z,15.40
2023-05-10T01:45:28.534Z,15.40
2023-05-10T01:48:09.499Z,15.40
2023-05-10T01:50:39.634Z,15.40
2023-05-10T01:53:09.719Z,15.30
2023-05-10T01:55:51.920Z,15.30
2023-05-10T01:58:23.897Z,15.40
2023-05-10T02:00:53.023Z,15.40
2023-05-10T02:03:24.468Z,15.40
2023-05-10T02:05:52.993Z,15.40
2023-05-10T02:08:22.033Z,15.40
2023-05-10T02:10:53.372Z,15.40
2023-05-10T02:13:21.279Z,15.40
2023-05-10T02:15:49.930Z,15.40
2023-05-10T02:18:19.447Z,15.40
2023-05-10T02:20:48.476Z,15.40
2023-05-10T02:23:18.255Z,15.40
2023-05-10T02:25:46.059Z,15.30
2023-05-10T02:28:14.475Z,15.30
2023-05-10T02:30:42.693Z,15.30
2023-05-10T02:33:10.236Z,15.30
2023-05-10T02:35:38.053Z,15.30
2023-05-10T02:38:07.523Z,15.30
2023-05-10T02:40:37.621Z,15.30
2023-05-10T02:43:07.600Z,15.20
2023-05-10T02:45:37.533Z,15.20
2023-05-10T02:48:05.211Z,15.20
2023-05-10T02:50:34.969Z,15.20
2023-05-10T02:53:04.551Z,15.10
2023-05-10T02:55:39.039Z,15.10
2023-05-10T02:58:08.956Z,15.10
2023-05-10T03:00:37.281Z,15.00
2023-05-10T03:03:04.594Z,15.00
2023-05-10T03:05:31.458Z,15.00
2023-05-10T03:07:58.413Z,14.90
2023-05-10T03:10:31.004Z,14.90
2023-05-10T03:13:16.300Z,14.90
2023-05-10T03:16:15.312Z,14.90
2023-05-10T03:18:46.982Z,14.90
2023-05-10T03:21:16.246Z,14.80
2023-05-10T03:24:08.026Z,14.90
2023-05-10T03:26:35.988Z,14.70
2023-05-10T03:29:03.818Z,14.80
2023-05-10T03:31:30.783Z,14.70
2023-05-10T03:33:57.715Z,14.60
2023-05-10T03:36:24.424Z,14.50
2023-05-10T03:38:51.332Z,14.40
2023-05-10T03:41:22.564Z,14.30
2023-05-10T03:43:49.387Z,14.30
2023-05-10T03:46:16.394Z,14.20
2023-05-10T03:48:43.283Z,14.30
2023-05-10T03:51:10.076Z,14.20
2023-05-10T03:53:37.435Z,14.10
2023-05-10T03:56:04.482Z,14.10
2023-05-10T03:58:31.297Z,14.10
2023-05-10T04:00:58.218Z,14.10
2023-05-10T04:03:26.915Z,14.00
2023-05-10T04:06:03.481Z,14.00
2023-05-10T04:08:30.626Z,14.00
2023-05-10T04:11:11.065Z,13.90
2023-05-10T04:13:38.266Z,13.90
2023-05-10T04:16:06.242Z,13.90
2023-05-10T04:18:39.284Z,13.90
2023-05-10T04:21:11.860Z,13.90
2023-05-10T04:23:38.800Z,13.90
2023-05-10T04:26:41.468Z,14.00
2023-05-10T04:32:21.487Z,14.00
2023-05-10T04:34:48.800Z,13.90
2023-05-10T04:37:15.744Z,13.90
2023-05-10T04:39:42.650Z,13.90
2023-05-10T04:42:09.671Z,13.90
2023-05-10T04:44:37.312Z,13.90
2023-05-10T04:47:04.396Z,13.90
2023-05-10T04:49:34.347Z,14.00
2023-05-10T04:52:01.406Z,14.00
2023-05-10T04:54:28.232Z,13.90
2023-05-10T04:56:55.054Z,13.90
2023-05-10T04:59:22.811Z,14.00
2023-05-10T05:01:49.841Z,14.00
2023-05-10T05:04:24.561Z,14.00
2023-05-10T05:07:07.065Z,14.00
2023-05-10T05:09:38.760Z,14.00
2023-05-10T05:12:08.830Z,14.00
2023-05-10T05:14:35.862Z,14.00
2023-05-10T05:17:05.921Z,14.00
2023-05-10T05:19:32.929Z,14.00
2023-05-10T05:22:00.145Z,14.00
2023-05-10T05:24:27.136Z,14.00
2023-05-10T05:26:54.097Z,13.90
2023-05-10T05:29:21.616Z,13.80
2023-05-10T05:31:53.435Z,13.60
2023-05-10T05:34:23.601Z,13.50
2023-05-10T05:37:01.493Z,13.40
2023-05-10T05:39:29.264Z,13.30
2023-05-10T05:41:56.534Z,13.30
2023-05-10T05:44:24.037Z,13.30
2023-05-10T05:46:55.155Z,13.20
2023-05-10T05:49:22.873Z,13.20
2023-05-10T05:51:51.340Z,13.20
2023-05-10T05:54:18.772Z,13.20
2023-05-10T05:56:48.361Z,13.20
2023-05-10T05:59:15.362Z,13.20
2023-05-10T06:01:46.772Z,13.20
2023-05-10T06:04:20.805Z,13.20
2023-05-10T06:06:47.926Z,13.20
2023-05-10T06:09:15.256Z,13.20
2023-05-10T06:11:42.393Z,13.20
2023-05-10T06:14:09.296Z,13.20
2023-05-10T06:16:36.338Z,13.20
2023-05-10T06:19:03.875Z,13.20
2023-05-10T06:21:31.217Z,13.30
2023-05-10T06:23:58.301Z,13.30
2023-05-10T06:26:25.159Z,13.20
2023-05-10T06:28:51.938Z,13.30
2023-05-10T06:31:18.813Z,13.30
2023-05-10T06:33:45.746Z,13.30
2023-05-10T06:36:12.972Z,13.30
2023-05-10T06:38:40.007Z,13.30
2023-05-10T06:41:06.788Z,13.30
2023-05-10T06:43:33.608Z,13.30
2023-05-10T06:46:00.422Z,13.30
2023-05-10T06:48:27.297Z,13.40
2023-05-10T06:50:54.078Z,13.30
2023-05-10T06:53:20.852Z,13.30
2023-05-10T06:55:47.650Z,13.40
2023-05-10T06:58:14.914Z,13.50
2023-05-10T07:00:44.688Z,13.50
2023-05-10T07:03:11.781Z,13.60
2023-05-10T07:05:41.992Z,13.70
2023-05-10T07:08:09.471Z,13.70
2023-05-10T07:10:36.894Z,13.70
2023-05-10T07:13:04.521Z,13.70
2023-05-10T07:15:31.331Z,13.70
2023-05-10T07:17:58.679Z,13.70
2023-05-10T07:20:25.581Z,13.80
2023-05-10T07:22:52.604Z,13.80
2023-05-10T07:25:19.977Z,13.90
2023-05-10T07:27:49.559Z,13.90
2023-05-10T07:30:16.582Z,14.00
2023-05-10T07:32:43.571Z,14.00
2023-05-10T07:35:10.607Z,14.00
2023-05-10T07:37:37.438Z,13.90
2023-05-10T07:40:04.706Z,13.80
2023-05-10T07:42:31.790Z,13.90
2023-05-10T07:44:58.859Z,13.90
2023-05-10T07:47:25.813Z,13.90
2023-05-10T07:50:05.206Z,14.00
2023-05-10T07:52:32.183Z,14.20
2023-05-10T07:54:58.962Z,14.00
2023-05-10T07:57:26.012Z,14.00
2023-05-10T07:59:55.830Z,14.10
2023-05-10T08:02:28.905Z,14.20
2023-05-10T08:04:56.886Z,14.30
2023-05-10T08:07:25.979Z,14.60
2023-05-10T08:09:53.024Z,14.80
2023-05-10T08:12:22.927Z,15.00
2023-05-10T08:14:49.960Z,15.10
2023-05-10T08:17:22.107Z,15.20
2023-05-10T08:19:50.517Z,15.30
2023-05-10T08:22:24.812Z,15.40
2023-05-10T08:24:51.672Z,15.30
2023-05-10T08:27:18.416Z,15.20
2023-05-10T08:29:50.336Z,15.30
2023-05-10T08:32:18.002Z,15.30
2023-05-10T08:34:44.834Z,15.30
2023-05-10T08:37:14.185Z,15.30
2023-05-10T08:39:41.675Z,15.30
2023-05-10T08:42:10.175Z,15.30
2023-05-10T08:44:37.948Z,15.40
2023-05-10T08:47:08.621Z,15.30
2023-05-10T08:49:36.194Z,15.30
2023-05-10T08:52:05.273Z,15.50
2023-05-10T08:54:35.631Z,15.60
2023-05-10T08:57:14.620Z,15.90
2023-05-10T08:59:44.165Z,16.20
2023-05-10T09:02:21.802Z,16.20
2023-05-10T09:04:54.641Z,16.20
2023-05-10T09:07:21.977Z,16.20
2023-05-10T09:09:50.087Z,16.10
2023-05-10T09:12:20.764Z,16.20
2023-05-10T09:15:13.594Z,16.30
2023-05-10T09:17:42.279Z,16.30
2023-05-10T09:23:54.953Z,16.30
2023-05-10T09:26:28.200Z,16.20
2023-05-10T09:29:45.374Z,15.90
2023-05-10T09:33:16.943Z,15.70
2023-05-10T09:35:47.939Z,15.60
2023-05-10T09:38:18.285Z,15.70
2023-05-10T09:41:18.938Z,15.70
2023-05-10T09:43:45.935Z,15.80
2023-05-10T09:46:19.213Z,16.00
2023-05-10T09:48:48.771Z,16.50
2023-05-10T09:51:36.802Z,17.20
2023-05-10T09:54:27.712Z,17.70
2023-05-10T09:57:01.837Z,17.90
2023-05-10T09:59:34.095Z,17.80
2023-05-10T10:02:04.647Z,17.70
2023-05-10T10:04:31.873Z,17.70
2023-05-10T10:07:25.083Z,17.80
2023-05-10T10:09:52.380Z,17.90
2023-05-10T10:15:20.223Z,18.10
2023-05-10T10:17:49.183Z,17.90
2023-05-10T10:20:24.244Z,18.00
2023-05-10T10:23:03.103Z,18.40
2023-05-10T10:25:50.442Z,18.50
2023-05-10T10:28:57.546Z,18.60
2023-05-10T10:31:55.024Z,18.80
2023-05-10T10:34:26.436Z,18.90
2023-05-10T10:37:11.482Z,19.10
2023-05-10T10:40:01.285Z,19.60
2023-05-10T10:43:22.293Z,19.70
2023-05-10T10:46:18.802Z,19.60
2023-05-10T10:53:44.812Z,19.50
2023-05-10T10:56:28.861Z,19.60
2023-05-10T11:02:11.012Z,19.30
2023-05-10T11:05:10.884Z,19.70
2023-05-10T11:08:27.642Z,20.10
2023-05-10T11:11:03.397Z,20.30
2023-05-10T11:14:02.739Z,20.40
2023-05-10T11:17:06.434Z,20.40
2023-05-10T11:20:08.687Z,20.60
2023-05-10T11:26:18.425Z,20.30
2023-05-10T11:28:48.128Z,19.80
2023-05-10T11:31:16.809Z,19.60
2023-05-10T11:34:17.096Z,19.20
2023-05-10T11:37:07.566Z,19.10
2023-05-10T11:39:52.482Z,19.80
2023-05-10T11:42:24.157Z,20.80
2023-05-10T11:45:16.284Z,21.20
2023-05-10T11:48:25.273Z,21.10
2023-05-10T11:52:02.063Z,21.00
2023-05-10T11:54:53.551Z,21.30
2023-05-10T11:57:40.309Z,21.30
2023-05-10T12:00:20.220Z,20.90
2023-05-10T12:02:48.758Z,20.50
2023-05-10T12:08:42.273Z,20.30
2023-05-10T12:14:31.731Z,20.30
2023-05-10T12:17:24.960Z,20.20
2023-05-10T12:19:58.559Z,20.30
2023-05-10T12:22:46.362Z,20.70
2023-05-10T12:25:26.773Z,21.30
2023-05-10T12:27:56.897Z,21.70
2023-05-10T12:33:34.558Z,22.00
2023-05-10T12:36:12.837Z,21.30
2023-05-10T12:39:05.108Z,21.40
2023-05-10T12:41:37.866Z,22.20
2023-05-10T12:44:24.530Z,22.50
2023-05-10T12:47:01.762Z,22.90
2023-05-10T12:49:36.548Z,22.70
2023-05-10T12:55:42.122Z,22.20
2023-05-10T12:59:23.014Z,21.90
2023-05-10T13:01:58.678Z,21.00
2023-05-10T13:09:07.693Z,21.20
2023-05-10T13:11:14.455Z,21.50
2023-05-10T13:13:56.766Z,21.10
2023-05-10T13:16:54.496Z,20.80
2023-05-10T13:19:22.290Z,20.50
2023-05-10T13:22:02.002Z,20.30
2023-05-10T13:25:00.984Z,20.20
2023-05-10T13:27:41.410Z,19.90
2023-05-10T13:30:31.254Z,19.70
2023-05-10T13:33:04.185Z,19.50
2023-05-10T13:35:40.650Z,19.10
2023-05-10T13:41:03.890Z,19.60
2023-05-10T13:43:45.225Z,19.60
2023-05-10T13:46:21.757Z,19.50
2023-05-10T13:49:02.716Z,19.30
2023-05-10T13:51:33.140Z,19.20
2023-05-10T13:54:04.400Z,19.20
2023-05-10T13:56:59.678Z,19.30
2023-05-10T14:02:24.476Z,19.30
2023-05-10T14:07:54.405Z,19.90
2023-05-10T14:10:55.661Z,20.00
2023-05-10T14:13:24.978Z,20.10
2023-05-10T14:15:56.139Z,20.00
2023-05-10T14:18:27.129Z,20.00
2023-05-10T14:20:54.581Z,19.90
2023-05-10T14:23:30.938Z,19.90
2023-05-10T14:26:12.109Z,19.80
2023-05-10T14:28:39.167Z,19.80
2023-05-10T14:31:09.655Z,19.70
2023-05-10T14:33:49.147Z,19.70
2023-05-10T14:36:16.950Z,19.60
2023-05-10T14:39:13.880Z,19.80
2023-05-10T14:41:56.861Z,19.60
2023-05-10T14:44:30.449Z,19.40
2023-05-10T14:46:57.494Z,19.20
2023-05-10T14:49:30.439Z,19.10
2023-05-10T14:52:10.736Z,19.00
2023-05-10T14:54:51.119Z,18.90
2023-05-10T14:57:18.363Z,18.70
2023-05-10T15:00:39.818Z,18.70
2023-05-10T15:05:59.509Z,18.40
2023-05-10T15:08:29.848Z,18.40
2023-05-10T15:10:57.287Z,18.30
2023-05-10T15:13:40.813Z,18.20
2023-05-10T15:16:08.010Z,17.90
2023-05-10T15:18:47.986Z,17.90
2023-05-10T15:27:46.404Z,18.00
2023-05-10T15:30:34.117Z,18.10
2023-05-10T15:36:05.960Z,18.20
2023-05-10T15:38:38.388Z,18.20
2023-05-10T15:44:12.655Z,18.10
2023-05-10T15:47:08.844Z,18.20
2023-05-10T15:49:36.174Z,18.20
2023-05-10T15:52:06.559Z,18.20
2023-05-10T15:54:36.188Z,18.20
2023-05-10T15:57:03.103Z,18.20
2023-05-10T16:00:05.735Z,18.20
2023-05-10T16:02:33.006Z,18.20
2023-05-10T16:05:07.582Z,18.10
2023-05-10T16:07:51.381Z,18.10
2023-05-10T16:10:31.807Z,17.80
2023-05-10T16:13:23.760Z,17.80
2023-05-10T16:15:50.976Z,17.80
2023-05-10T16:18:44.691Z,17.70
2023-05-10T16:21:38.608Z,17.60
2023-05-10T16:24:12.177Z,17.40
2023-05-10T16:33:11.833Z,17.30
2023-05-10T16:35:39.683Z,17.30
2023-05-10T16:38:08.904Z,17.20
2023-05-10T16:48:01.975Z,17.00
2023-05-10T16:51:16.362Z,16.90
2023-05-10T16:54:01.749Z,16.80
2023-05-10T16:57:06.916Z,16.60
2023-05-10T17:00:17.332Z,16.50
2023-05-10T17:05:34.777Z,16.30
2023-05-10T17:08:02.190Z,16.30
2023-05-10T17:13:17.475Z,16.40
2023-05-10T17:26:30.933Z,16.30
2023-05-10T17:29:24.765Z,16.40
2023-05-10T17:32:38.185Z,16.30
2023-05-10T17:34:53.509Z,16.20
2023-05-10T17:37:24.997Z,16.20
2023-05-10T17:39:52.121Z,16.10
2023-05-10T17:52:18.261Z,16.00
2023-05-10T18:02:16.365Z,16.00
2023-05-10T18:04:31.708Z,16.10
2023-05-10T18:10:52.878Z,15.80
2023-05-10T18:13:31.609Z,15.70
2023-05-10T18:16:14.664Z,15.70
2023-05-10T18:19:12.888Z,15.90
2023-05-10T18:21:58.157Z,15.70
2023-05-10T19:04:45.555Z,14.70
2023-05-10T19:07:35.588Z,14.70
2023-05-10T19:10:08.398Z,14.60
2023-05-10T19:12:38.811Z,14.50
2023-05-10T19:15:06.906Z,14.50
2023-05-10T19:17:52.827Z,14.40
2023-05-10T19:20:45.974Z,14.40
2023-05-10T19:23:21.454Z,14.30
2023-05-10T19:26:06.302Z,14.30
2023-05-10T19:29:06.098Z,14.20
2023-05-10T19:31:52.975Z,14.10
2023-05-10T19:37:21.638Z,14.10
2023-05-10T19:46:20.451Z,13.90
2023-05-10T19:52:19.945Z,14.10
2023-05-10T19:54:50.544Z,14.00
2023-05-10T19:57:20.007Z,14.00
2023-05-10T19:59:53.891Z,14.00
2023-05-10T20:03:08.412Z,14.00
2023-05-10T20:06:04.718Z,14.10
2023-05-10T20:12:21.827Z,14.10
2023-05-10T20:51:44.480Z,14.10
2023-05-10T21:02:03.584Z,14.10
2023-05-10T21:04:30.822Z,14.10
2023-05-10T21:06:57.967Z,14.10
2023-05-10T21:09:26.481Z,14.00
2023-05-10T21:11:53.852Z,14.00
2023-05-10T21:14:21.479Z,14.00
2023-05-10T21:16:51.267Z,14.00
2023-05-10T21:19:18.659Z,14.10
2023-05-10T21:21:46.248Z,14.00
2023-05-10T21:24:14.084Z,14.10
2023-05-10T21:26:41.089Z,14.10
2023-05-10T21:29:08.507Z,14.10
2023-05-10T21:31:36.062Z,14.00
2023-05-10T21:34:03.798Z,14.00
2023-05-10T21:36:32.550Z,14.00
2023-05-10T21:38:59.800Z,14.10
2023-05-10T21:41:27.290Z,14.10
2023-05-10T21:43:54.615Z,14.00
2023-05-10T21:46:22.054Z,14.00
2023-05-10T21:48:49.308Z,14.00
2023-05-10T21:51:16.425Z,14.10
2023-05-10T21:53:43.587Z,14.00
2023-05-10T21:56:10.802Z,14.00
2023-05-10T21:58:37.936Z,14.00
2023-05-10T22:01:05.429Z,14.00
2023-05-10T22:03:33.775Z,13.90
2023-05-10T22:06:00.896Z,13.90
2023-05-10T22:08:27.906Z,13.90
2023-05-10T22:10:55.047Z,13.90
2023-05-10T22:13:22.409Z,13.90
2023-05-10T22:15:49.733Z,13.90
2023-05-10T22:18:17.144Z,13.90
2023-05-10T22:20:47.465Z,13.90
2023-05-10T22:23:14.569Z,13.90
2023-05-10T22:25:42.105Z,13.90
2023-05-10T22:28:09.425Z,13.90
2023-05-10T22:30:36.852Z,13.80
2023-05-10T22:33:04.072Z,13.90
2023-05-10T22:35:31.343Z,13.90
2023-05-10T22:37:58.412Z,13.80
2023-05-10T22:40:25.751Z,13.80
2023-05-10T22:42:53.121Z,13.80
2023-05-10T22:45:22.815Z,13.80
2023-05-10T22:47:49.971Z,13.80
2023-05-10T22:50:17.291Z,13.70
2023-05-10T22:52:44.593Z,13.70
2023-05-10T22:55:12.163Z,13.70
2023-05-10T22:57:40.032Z,13.80
2023-05-10T23:00:08.191Z,13.70
2023-05-10T23:02:35.729Z,13.70
2023-05-10T23:05:03.275Z,13.80
2023-05-10T23:07:30.465Z,13.70
2023-05-10T23:09:58.094Z,13.70
2023-05-10T23:12:25.387Z,13.80
2023-05-10T23:14:53.202Z,13.70
2023-05-10T23:17:20.881Z,13.80
2023-05-10T23:19:48.264Z,13.80
2023-05-10T23:22:15.413Z,13.80
2023-05-10T23:24:42.526Z,13.80
2023-05-10T23:27:09.644Z,13.70
2023-05-10T23:29:37.129Z,13.70
2023-05-10T23:32:05.485Z,13.70
2023-05-10T23:34:32.790Z,13.70
2023-05-10T23:37:00.303Z,13.70
2023-05-10T23:39:27.519Z,13.60
2023-05-10T23:41:55.155Z,13.60
2023-05-10T23:44:25.944Z,13.60
2023-05-10T23:46:53.290Z,13.60
2023-05-10T23:49:20.769Z,13.60
2023-05-10T23:51:48.197Z,13.60
2023-05-10T23:54:15.430Z,13.60
2023-05-10T23:56:42.775Z,13.60
2023-05-10T23:59:09.886Z,13.60
